sensor_id;sensor_type;location;lat;lon;timestamp;P1;durP1;ratioP1;P2;durP2;ratioP2
75135;SDS011;63707;52.212;9.540;2023-07-28T00:01:24;13.35;;;9.85;;
75135;SDS011;63707;52.212;9.540;2023-07-28T00:03:49;16.67;;;10.27;;
75135;SDS011;63707;52.212;9.540;2023-07-28T00:06:14;17.40;;;11.07;;
75135;SDS011;63707;52.212;9.540;2023-07-28T00:08:40;13.95;;;10.32;;
75135;SDS011;63707;52.212;9.540;2023-07-28T00:11:09;17.30;;;10.95;;
75135;SDS011;63707;52.212;9.540;2023-07-28T00:13:37;14.38;;;10.35;;
75135;SDS011;63707;52.212;9.540;2023-07-28T00:16:02;14.30;;;10.10;;
75135;SDS011;63707;52.212;9.540;2023-07-28T00:18:28;14.75;;;9.45;;
75135;SDS011;63707;52.212;9.540;2023-07-28T00:20:54;11.02;;;8.88;;
75135;SDS011;63707;52.212;9.540;2023-07-28T00:23:19;17.13;;;9.75;;
75135;SDS011;63707;52.212;9.540;2023-07-28T00:25:44;11.48;;;8.63;;
75135;SDS011;63707;52.212;9.540;2023-07-28T00:28:12;11.57;;;8.20;;
75135;SDS011;63707;52.212;9.540;2023-07-28T00:30:38;11.90;;;8.93;;
75135;SDS011;63707;52.212;9.540;2023-07-28T00:33:04;12.93;;;8.10;;
75135;SDS011;63707;52.212;9.540;2023-07-28T00:35:29;9.45;;;8.05;;
75135;SDS011;63707;52.212;9.540;2023-07-28T00:37:55;11.20;;;7.82;;
75135;SDS011;63707;52.212;9.540;2023-07-28T00:40:21;9.63;;;7.78;;
75135;SDS011;63707;52.212;9.540;2023-07-28T00:42:47;9.77;;;7.43;;
75135;SDS011;63707;52.212;9.540;2023-07-28T00:45:13;10.35;;;7.65;;
75135;SDS011;63707;52.212;9.540;2023-07-28T00:47:39;9.80;;;6.97;;
75135;SDS011;63707;52.212;9.540;2023-07-28T00:50:06;11.68;;;6.60;;
75135;SDS011;63707;52.212;9.540;2023-07-28T00:52:33;8.68;;;5.82;;
75135;SDS011;63707;52.212;9.540;2023-07-28T00:54:59;10.55;;;6.30;;
75135;SDS011;63707;52.212;9.540;2023-07-28T00:57:25;8.02;;;6.40;;
75135;SDS011;63707;52.212;9.540;2023-07-28T00:59:50;11.18;;;6.18;;
75135;SDS011;63707;52.212;9.540;2023-07-28T01:02:17;6.80;;;5.30;;
75135;SDS011;63707;52.212;9.540;2023-07-28T01:04:43;5.88;;;4.90;;
75135;SDS011;63707;52.212;9.540;2023-07-28T01:07:09;9.32;;;5.40;;
75135;SDS011;63707;52.212;9.540;2023-07-28T01:09:40;7.47;;;5.47;;
75135;SDS011;63707;52.212;9.540;2023-07-28T01:12:10;7.72;;;4.70;;
75135;SDS011;63707;52.212;9.540;2023-07-28T01:14:36;5.63;;;4.53;;
75135;SDS011;63707;52.212;9.540;2023-07-28T01:17:01;6.75;;;5.07;;
75135;SDS011;63707;52.212;9.540;2023-07-28T01:19:28;5.18;;;4.47;;
75135;SDS011;63707;52.212;9.540;2023-07-28T01:21:59;8.27;;;4.80;;
75135;SDS011;63707;52.212;9.540;2023-07-28T01:24:42;7.93;;;5.63;;
75135;SDS011;63707;52.212;9.540;2023-07-28T01:29:43;8.80;;;6.57;;
75135;SDS011;63707;52.212;9.540;2023-07-28T01:32:10;12.93;;;7.70;;
75135;SDS011;63707;52.212;9.540;2023-07-28T01:34:36;9.52;;;6.20;;
75135;SDS011;63707;52.212;9.540;2023-07-28T01:37:02;12.73;;;7.20;;
75135;SDS011;63707;52.212;9.540;2023-07-28T01:39:28;6.57;;;4.85;;
75135;SDS011;63707;52.212;9.540;2023-07-28T01:41:53;5.13;;;4.35;;
75135;SDS011;63707;52.212;9.540;2023-07-28T01:44:20;5.78;;;4.70;;
75135;SDS011;63707;52.212;9.540;2023-07-28T01:46:45;6.85;;;5.13;;
75135;SDS011;63707;52.212;9.540;2023-07-28T01:49:11;10.13;;;5.15;;
75135;SDS011;63707;52.212;9.540;2023-07-28T01:51:36;6.55;;;4.50;;
75135;SDS011;63707;52.212;9.540;2023-07-28T01:54:02;7.03;;;4.90;;
75135;SDS011;63707;52.212;9.540;2023-07-28T01:56:27;5.75;;;4.72;;
75135;SDS011;63707;52.212;9.540;2023-07-28T01:58:53;5.03;;;4.53;;
75135;SDS011;63707;52.212;9.540;2023-07-28T02:01:20;6.60;;;4.65;;
75135;SDS011;63707;52.212;9.540;2023-07-28T02:03:45;10.77;;;4.57;;
75135;SDS011;63707;52.212;9.540;2023-07-28T02:06:10;6.90;;;4.30;;
75135;SDS011;63707;52.212;9.540;2023-07-28T02:08:36;6.43;;;4.15;;
75135;SDS011;63707;52.212;9.540;2023-07-28T02:11:01;5.43;;;4.43;;
75135;SDS011;63707;52.212;9.540;2023-07-28T02:13:27;4.75;;;4.03;;
75135;SDS011;63707;52.212;9.540;2023-07-28T02:15:52;5.55;;;4.05;;
75135;SDS011;63707;52.212;9.540;2023-07-28T02:18:19;4.60;;;3.95;;
75135;SDS011;63707;52.212;9.540;2023-07-28T02:20:47;6.88;;;3.70;;
75135;SDS011;63707;52.212;9.540;2023-07-28T02:23:12;5.90;;;3.90;;
75135;SDS011;63707;52.212;9.540;2023-07-28T02:25:38;5.00;;;3.72;;
75135;SDS011;63707;52.212;9.540;2023-07-28T02:28:04;6.57;;;3.63;;
75135;SDS011;63707;52.212;9.540;2023-07-28T02:30:29;4.28;;;3.60;;
75135;SDS011;63707;52.212;9.540;2023-07-28T02:32:55;5.05;;;3.65;;
75135;SDS011;63707;52.212;9.540;2023-07-28T02:35:22;6.15;;;3.90;;
75135;SDS011;63707;52.212;9.540;2023-07-28T02:37:47;5.30;;;3.55;;
75135;SDS011;63707;52.212;9.540;2023-07-28T02:40:13;4.50;;;3.42;;
75135;SDS011;63707;52.212;9.540;2023-07-28T02:42:38;8.45;;;3.03;;
75135;SDS011;63707;52.212;9.540;2023-07-28T02:45:04;4.60;;;3.13;;
75135;SDS011;63707;52.212;9.540;2023-07-28T02:47:30;6.97;;;3.33;;
75135;SDS011;63707;52.212;9.540;2023-07-28T02:49:55;4.40;;;3.00;;
75135;SDS011;63707;52.212;9.540;2023-07-28T02:52:23;4.93;;;3.13;;
75135;SDS011;63707;52.212;9.540;2023-07-28T02:54:49;6.95;;;3.35;;
75135;SDS011;63707;52.212;9.540;2023-07-28T02:57:15;3.70;;;2.92;;
75135;SDS011;63707;52.212;9.540;2023-07-28T02:59:40;5.80;;;3.20;;
75135;SDS011;63707;52.212;9.540;2023-07-28T03:02:06;6.72;;;3.20;;
75135;SDS011;63707;52.212;9.540;2023-07-28T03:04:31;4.47;;;3.20;;
75135;SDS011;63707;52.212;9.540;2023-07-28T03:06:57;4.45;;;2.83;;
75135;SDS011;63707;52.212;9.540;2023-07-28T03:09:24;6.25;;;3.47;;
75135;SDS011;63707;52.212;9.540;2023-07-28T03:11:49;4.90;;;3.45;;
75135;SDS011;63707;52.212;9.540;2023-07-28T03:14:15;4.82;;;3.22;;
75135;SDS011;63707;52.212;9.540;2023-07-28T03:16:41;5.00;;;3.80;;
75135;SDS011;63707;52.212;9.540;2023-07-28T03:19:07;7.38;;;3.40;;
75135;SDS011;63707;52.212;9.540;2023-07-28T03:21:32;5.30;;;3.70;;
75135;SDS011;63707;52.212;9.540;2023-07-28T03:23:58;5.00;;;3.40;;
75135;SDS011;63707;52.212;9.540;2023-07-28T03:26:25;6.60;;;3.92;;
75135;SDS011;63707;52.212;9.540;2023-07-28T03:28:50;6.55;;;3.40;;
75135;SDS011;63707;52.212;9.540;2023-07-28T03:31:16;4.80;;;3.80;;
75135;SDS011;63707;52.212;9.540;2023-07-28T03:33:41;6.00;;;3.78;;
75135;SDS011;63707;52.212;9.540;2023-07-28T03:36:07;5.13;;;3.45;;
75135;SDS011;63707;52.212;9.540;2023-07-28T03:38:33;6.22;;;3.85;;
75135;SDS011;63707;52.212;9.540;2023-07-28T03:40:58;9.05;;;3.67;;
75135;SDS011;63707;52.212;9.540;2023-07-28T03:43:25;6.15;;;3.85;;
75135;SDS011;63707;52.212;9.540;2023-07-28T03:45:51;5.63;;;3.70;;
75135;SDS011;63707;52.212;9.540;2023-07-28T03:48:16;6.65;;;3.83;;
75135;SDS011;63707;52.212;9.540;2023-07-28T03:50:42;5.50;;;4.10;;
75135;SDS011;63707;52.212;9.540;2023-07-28T03:53:07;6.20;;;4.30;;
75135;SDS011;63707;52.212;9.540;2023-07-28T03:55:33;5.35;;;3.88;;
75135;SDS011;63707;52.212;9.540;2023-07-28T03:57:58;5.50;;;3.60;;
75135;SDS011;63707;52.212;9.540;2023-07-28T04:00:25;6.32;;;3.92;;
75135;SDS011;63707;52.212;9.540;2023-07-28T04:02:51;4.45;;;3.70;;
75135;SDS011;63707;52.212;9.540;2023-07-28T04:05:16;5.85;;;3.63;;
75135;SDS011;63707;52.212;9.540;2023-07-28T04:07:42;5.47;;;3.60;;
75135;SDS011;63707;52.212;9.540;2023-07-28T04:10:08;5.40;;;3.97;;
75135;SDS011;63707;52.212;9.540;2023-07-28T04:12:33;9.13;;;4.78;;
75135;SDS011;63707;52.212;9.540;2023-07-28T04:14:59;6.07;;;4.53;;
75135;SDS011;63707;52.212;9.540;2023-07-28T04:17:27;7.05;;;4.22;;
75135;SDS011;63707;52.212;9.540;2023-07-28T04:19:52;6.97;;;4.38;;
75135;SDS011;63707;52.212;9.540;2023-07-28T04:22:18;6.47;;;4.45;;
75135;SDS011;63707;52.212;9.540;2023-07-28T04:24:46;8.40;;;5.03;;
75135;SDS011;63707;52.212;9.540;2023-07-28T04:27:12;6.63;;;4.80;;
75135;SDS011;63707;52.212;9.540;2023-07-28T04:29:38;6.90;;;4.97;;
75135;SDS011;63707;52.212;9.540;2023-07-28T04:32:04;8.15;;;5.18;;
75135;SDS011;63707;52.212;9.540;2023-07-28T04:34:33;7.63;;;5.45;;
75135;SDS011;63707;52.212;9.540;2023-07-28T04:36:59;8.27;;;5.10;;
75135;SDS011;63707;52.212;9.540;2023-07-28T04:39:24;8.43;;;5.45;;
75135;SDS011;63707;52.212;9.540;2023-07-28T04:41:50;8.45;;;5.13;;
75135;SDS011;63707;52.212;9.540;2023-07-28T04:44:16;12.40;;;4.95;;
75135;SDS011;63707;52.212;9.540;2023-07-28T04:46:42;10.80;;;4.75;;
75135;SDS011;63707;52.212;9.540;2023-07-28T04:49:07;7.63;;;4.78;;
75135;SDS011;63707;52.212;9.540;2023-07-28T04:51:34;8.07;;;4.50;;
75135;SDS011;63707;52.212;9.540;2023-07-28T04:53:59;6.25;;;4.82;;
75135;SDS011;63707;52.212;9.540;2023-07-28T04:56:25;9.70;;;4.78;;
75135;SDS011;63707;52.212;9.540;2023-07-28T04:58:50;11.13;;;5.10;;
75135;SDS011;63707;52.212;9.540;2023-07-28T05:01:16;6.90;;;5.00;;
75135;SDS011;63707;52.212;9.540;2023-07-28T05:03:41;5.78;;;4.60;;
75135;SDS011;63707;52.212;9.540;2023-07-28T05:06:07;6.50;;;4.88;;
75135;SDS011;63707;52.212;9.540;2023-07-28T05:08:33;6.88;;;5.13;;
75135;SDS011;63707;52.212;9.540;2023-07-28T05:10:59;7.25;;;4.97;;
75135;SDS011;63707;52.212;9.540;2023-07-28T05:13:24;9.38;;;5.43;;
75135;SDS011;63707;52.212;9.540;2023-07-28T05:15:50;8.82;;;5.30;;
75135;SDS011;63707;52.212;9.540;2023-07-28T05:18:15;9.43;;;5.78;;
75135;SDS011;63707;52.212;9.540;2023-07-28T05:20:41;7.82;;;5.53;;
75135;SDS011;63707;52.212;9.540;2023-07-28T05:23:06;9.13;;;5.82;;
75135;SDS011;63707;52.212;9.540;2023-07-28T05:25:33;8.05;;;6.22;;
75135;SDS011;63707;52.212;9.540;2023-07-28T05:27:59;7.85;;;6.03;;
75135;SDS011;63707;52.212;9.540;2023-07-28T05:30:24;7.97;;;6.05;;
75135;SDS011;63707;52.212;9.540;2023-07-28T05:32:50;10.25;;;6.38;;
75135;SDS011;63707;52.212;9.540;2023-07-28T05:35:15;10.25;;;6.97;;
75135;SDS011;63707;52.212;9.540;2023-07-28T05:37:41;8.75;;;6.18;;
75135;SDS011;63707;52.212;9.540;2023-07-28T05:40:07;8.93;;;6.25;;
75135;SDS011;63707;52.212;9.540;2023-07-28T05:42:34;8.48;;;6.10;;
75135;SDS011;63707;52.212;9.540;2023-07-28T05:45:00;8.95;;;6.22;;
75135;SDS011;63707;52.212;9.540;2023-07-28T05:47:26;9.82;;;6.45;;
75135;SDS011;63707;52.212;9.540;2023-07-28T05:49:51;10.68;;;7.45;;
75135;SDS011;63707;52.212;9.540;2023-07-28T05:52:18;10.05;;;6.32;;
75135;SDS011;63707;52.212;9.540;2023-07-28T05:54:44;13.10;;;7.30;;
75135;SDS011;63707;52.212;9.540;2023-07-28T05:57:09;15.27;;;7.30;;
75135;SDS011;63707;52.212;9.540;2023-07-28T05:59:36;13.20;;;8.38;;
75135;SDS011;63707;52.212;9.540;2023-07-28T06:02:02;11.88;;;7.82;;
75135;SDS011;63707;52.212;9.540;2023-07-28T06:04:27;12.25;;;8.60;;
75135;SDS011;63707;52.212;9.540;2023-07-28T06:06:53;12.95;;;8.00;;
75135;SDS011;63707;52.212;9.540;2023-07-28T06:09:18;10.80;;;7.85;;
75135;SDS011;63707;52.212;9.540;2023-07-28T06:11:44;12.15;;;8.05;;
75135;SDS011;63707;52.212;9.540;2023-07-28T06:14:09;12.50;;;9.13;;
75135;SDS011;63707;52.212;9.540;2023-07-28T06:16:36;13.25;;;8.77;;
75135;SDS011;63707;52.212;9.540;2023-07-28T06:19:02;14.75;;;9.45;;
75135;SDS011;63707;52.212;9.540;2023-07-28T06:21:29;13.18;;;9.20;;
75135;SDS011;63707;52.212;9.540;2023-07-28T06:23:55;13.68;;;9.88;;
75135;SDS011;63707;52.212;9.540;2023-07-28T06:26:20;15.77;;;10.07;;
75135;SDS011;63707;52.212;9.540;2023-07-28T06:28:46;16.30;;;10.13;;
75135;SDS011;63707;52.212;9.540;2023-07-28T06:31:11;14.85;;;10.52;;
75135;SDS011;63707;52.212;9.540;2023-07-28T06:33:38;17.05;;;10.40;;
75135;SDS011;63707;52.212;9.540;2023-07-28T06:36:03;13.90;;;9.40;;
75135;SDS011;63707;52.212;9.540;2023-07-28T06:38:29;16.73;;;10.82;;
75135;SDS011;63707;52.212;9.540;2023-07-28T06:40:55;19.98;;;11.82;;
75135;SDS011;63707;52.212;9.540;2023-07-28T06:43:20;15.63;;;10.40;;
75135;SDS011;63707;52.212;9.540;2023-07-28T06:45:46;16.65;;;11.05;;
75135;SDS011;63707;52.212;9.540;2023-07-28T06:48:11;19.75;;;11.27;;
75135;SDS011;63707;52.212;9.540;2023-07-28T06:50:38;15.88;;;11.27;;
75135;SDS011;63707;52.212;9.540;2023-07-28T06:53:04;21.40;;;11.50;;
75135;SDS011;63707;52.212;9.540;2023-07-28T06:55:30;16.20;;;10.95;;
75135;SDS011;63707;52.212;9.540;2023-07-28T06:57:55;16.63;;;10.65;;
75135;SDS011;63707;52.212;9.540;2023-07-28T07:00:21;16.38;;;10.63;;
75135;SDS011;63707;52.212;9.540;2023-07-28T07:02:46;14.30;;;9.35;;
75135;SDS011;63707;52.212;9.540;2023-07-28T07:05:12;13.98;;;9.60;;
75135;SDS011;63707;52.212;9.540;2023-07-28T07:07:40;15.60;;;9.60;;
75135;SDS011;63707;52.212;9.540;2023-07-28T07:10:06;14.18;;;10.23;;
75135;SDS011;63707;52.212;9.540;2023-07-28T07:12:33;14.57;;;10.07;;
75135;SDS011;63707;52.212;9.540;2023-07-28T07:14:58;12.38;;;8.80;;
75135;SDS011;63707;52.212;9.540;2023-07-28T07:17:24;11.77;;;9.27;;
75135;SDS011;63707;52.212;9.540;2023-07-28T07:19:49;13.38;;;9.20;;
75135;SDS011;63707;52.212;9.540;2023-07-28T07:22:15;15.55;;;9.55;;
75135;SDS011;63707;52.212;9.540;2023-07-28T07:24:41;10.77;;;8.70;;
75135;SDS011;63707;52.212;9.540;2023-07-28T07:27:07;9.38;;;7.55;;
75135;SDS011;63707;52.212;9.540;2023-07-28T07:29:35;11.20;;;7.90;;
75135;SDS011;63707;52.212;9.540;2023-07-28T07:32:01;7.47;;;6.68;;
75135;SDS011;63707;52.212;9.540;2023-07-28T07:34:27;8.25;;;6.20;;
75135;SDS011;63707;52.212;9.540;2023-07-28T07:36:53;7.65;;;6.40;;
75135;SDS011;63707;52.212;9.540;2023-07-28T07:39:18;7.60;;;6.15;;
75135;SDS011;63707;52.212;9.540;2023-07-28T07:41:45;7.95;;;5.82;;
75135;SDS011;63707;52.212;9.540;2023-07-28T07:44:10;6.82;;;6.13;;
75135;SDS011;63707;52.212;9.540;2023-07-28T07:46:36;7.78;;;5.53;;
75135;SDS011;63707;52.212;9.540;2023-07-28T07:49:01;7.43;;;5.47;;
75135;SDS011;63707;52.212;9.540;2023-07-28T07:51:30;5.63;;;5.07;;
75135;SDS011;63707;52.212;9.540;2023-07-28T07:53:56;6.53;;;4.88;;
75135;SDS011;63707;52.212;9.540;2023-07-28T07:56:21;5.55;;;4.43;;
75135;SDS011;63707;52.212;9.540;2023-07-28T07:58:48;4.80;;;4.35;;
75135;SDS011;63707;52.212;9.540;2023-07-28T08:01:14;6.50;;;4.40;;
75135;SDS011;63707;52.212;9.540;2023-07-28T08:03:39;4.65;;;4.25;;
75135;SDS011;63707;52.212;9.540;2023-07-28T08:06:05;5.93;;;4.00;;
75135;SDS011;63707;52.212;9.540;2023-07-28T08:08:30;6.35;;;3.75;;
75135;SDS011;63707;52.212;9.540;2023-07-28T08:10:56;6.50;;;3.65;;
75135;SDS011;63707;52.212;9.540;2023-07-28T08:13:21;3.65;;;3.35;;
75135;SDS011;63707;52.212;9.540;2023-07-28T08:15:48;3.72;;;3.33;;
75135;SDS011;63707;52.212;9.540;2023-07-28T08:18:14;5.55;;;2.90;;
75135;SDS011;63707;52.212;9.540;2023-07-28T08:20:39;3.60;;;3.20;;
75135;SDS011;63707;52.212;9.540;2023-07-28T08:23:05;4.82;;;3.58;;
75135;SDS011;63707;52.212;9.540;2023-07-28T08:25:31;3.45;;;2.80;;
75135;SDS011;63707;52.212;9.540;2023-07-28T08:27:56;4.78;;;3.50;;
75135;SDS011;63707;52.212;9.540;2023-07-28T08:30:22;3.10;;;2.80;;
75135;SDS011;63707;52.212;9.540;2023-07-28T08:32:49;3.05;;;2.85;;
75135;SDS011;63707;52.212;9.540;2023-07-28T08:35:14;3.58;;;2.67;;
75135;SDS011;63707;52.212;9.540;2023-07-28T08:37:40;3.63;;;2.55;;
75135;SDS011;63707;52.212;9.540;2023-07-28T08:40:06;3.83;;;3.15;;
75135;SDS011;63707;52.212;9.540;2023-07-28T08:42:35;4.03;;;2.90;;
75135;SDS011;63707;52.212;9.540;2023-07-28T08:45:02;3.60;;;3.00;;
75135;SDS011;63707;52.212;9.540;2023-07-28T08:47:29;3.80;;;2.88;;
75135;SDS011;63707;52.212;9.540;2023-07-28T08:49:56;5.20;;;2.97;;
75135;SDS011;63707;52.212;9.540;2023-07-28T08:52:22;2.90;;;2.60;;
75135;SDS011;63707;52.212;9.540;2023-07-28T08:54:48;3.05;;;2.50;;
75135;SDS011;63707;52.212;9.540;2023-07-28T08:57:14;5.63;;;2.80;;
75135;SDS011;63707;52.212;9.540;2023-07-28T08:59:39;3.53;;;2.65;;
75135;SDS011;63707;52.212;9.540;2023-07-28T09:02:13;6.18;;;3.03;;
75135;SDS011;63707;52.212;9.540;2023-07-28T09:04:40;2.65;;;2.28;;
75135;SDS011;63707;52.212;9.540;2023-07-28T09:07:07;4.40;;;2.45;;
75135;SDS011;63707;52.212;9.540;2023-07-28T09:09:33;3.50;;;2.30;;
75135;SDS011;63707;52.212;9.540;2023-07-28T09:11:59;2.20;;;2.00;;
75135;SDS011;63707;52.212;9.540;2023-07-28T09:14:25;4.43;;;2.10;;
75135;SDS011;63707;52.212;9.540;2023-07-28T09:16:51;2.40;;;2.20;;
75135;SDS011;63707;52.212;9.540;2023-07-28T09:19:19;2.95;;;2.47;;
75135;SDS011;63707;52.212;9.540;2023-07-28T09:21:45;2.30;;;2.10;;
75135;SDS011;63707;52.212;9.540;2023-07-28T09:24:24;3.83;;;2.10;;
75135;SDS011;63707;52.212;9.540;2023-07-28T09:26:56;4.30;;;2.15;;
75135;SDS011;63707;52.212;9.540;2023-07-28T09:29:23;3.80;;;2.10;;
75135;SDS011;63707;52.212;9.540;2023-07-28T09:31:49;3.05;;;2.40;;
75135;SDS011;63707;52.212;9.540;2023-07-28T09:34:22;2.50;;;2.15;;
75135;SDS011;63707;52.212;9.540;2023-07-28T09:39:15;3.67;;;2.20;;
75135;SDS011;63707;52.212;9.540;2023-07-28T09:41:42;2.38;;;2.10;;
75135;SDS011;63707;52.212;9.540;2023-07-28T09:44:10;2.22;;;1.70;;
75135;SDS011;63707;52.212;9.540;2023-07-28T09:46:35;3.67;;;2.03;;
75135;SDS011;63707;52.212;9.540;2023-07-28T09:49:12;2.30;;;2.10;;
75135;SDS011;63707;52.212;9.540;2023-07-28T09:51:40;3.50;;;1.92;;
75135;SDS011;63707;52.212;9.540;2023-07-28T09:54:11;3.50;;;2.22;;
75135;SDS011;63707;52.212;9.540;2023-07-28T09:56:37;2.35;;;2.10;;
75135;SDS011;63707;52.212;9.540;2023-07-28T09:59:07;3.20;;;2.10;;
75135;SDS011;63707;52.212;9.540;2023-07-28T10:01:36;3.58;;;2.20;;
75135;SDS011;63707;52.212;9.540;2023-07-28T10:04:03;3.15;;;2.20;;
75135;SDS011;63707;52.212;9.540;2023-07-28T10:06:29;3.10;;;2.00;;
75135;SDS011;63707;52.212;9.540;2023-07-28T10:08:57;3.72;;;2.22;;
75135;SDS011;63707;52.212;9.540;2023-07-28T10:11:22;3.63;;;2.30;;
75135;SDS011;63707;52.212;9.540;2023-07-28T10:13:50;2.30;;;2.10;;
75135;SDS011;63707;52.212;9.540;2023-07-28T10:16:18;3.63;;;1.77;;
75135;SDS011;63707;52.212;9.540;2023-07-28T10:18:51;2.30;;;1.90;;
75135;SDS011;63707;52.212;9.540;2023-07-28T10:21:18;3.70;;;1.75;;
75135;SDS011;63707;52.212;9.540;2023-07-28T10:23:44;2.42;;;2.00;;
75135;SDS011;63707;52.212;9.540;2023-07-28T10:26:09;2.40;;;1.80;;
75135;SDS011;63707;52.212;9.540;2023-07-28T10:28:35;2.65;;;1.77;;
75135;SDS011;63707;52.212;9.540;2023-07-28T10:31:09;2.05;;;1.70;;
75135;SDS011;63707;52.212;9.540;2023-07-28T10:33:43;4.15;;;2.00;;
75135;SDS011;63707;52.212;9.540;2023-07-28T10:36:14;2.10;;;1.70;;
75135;SDS011;63707;52.212;9.540;2023-07-28T10:38:41;1.75;;;1.65;;
75135;SDS011;63707;52.212;9.540;2023-07-28T10:41:10;2.70;;;1.45;;
75135;SDS011;63707;52.212;9.540;2023-07-28T10:43:38;2.95;;;1.95;;
75135;SDS011;63707;52.212;9.540;2023-07-28T10:46:04;2.05;;;1.70;;
75135;SDS011;63707;52.212;9.540;2023-07-28T10:48:31;3.70;;;1.70;;
75135;SDS011;63707;52.212;9.540;2023-07-28T10:50:58;2.70;;;1.88;;
75135;SDS011;63707;52.212;9.540;2023-07-28T10:53:23;2.30;;;1.75;;
75135;SDS011;63707;52.212;9.540;2023-07-28T10:55:49;2.13;;;1.90;;
75135;SDS011;63707;52.212;9.540;2023-07-28T10:58:15;1.98;;;1.70;;
75135;SDS011;63707;52.212;9.540;2023-07-28T11:00:40;2.58;;;1.95;;
75135;SDS011;63707;52.212;9.540;2023-07-28T11:03:07;3.42;;;1.80;;
75135;SDS011;63707;52.212;9.540;2023-07-28T11:05:33;2.90;;;1.90;;
75135;SDS011;63707;52.212;9.540;2023-07-28T11:08:00;2.15;;;1.80;;
75135;SDS011;63707;52.212;9.540;2023-07-28T11:10:27;4.70;;;1.83;;
75135;SDS011;63707;52.212;9.540;2023-07-28T11:12:56;1.95;;;1.83;;
75135;SDS011;63707;52.212;9.540;2023-07-28T11:15:23;2.58;;;1.73;;
75135;SDS011;63707;52.212;9.540;2023-07-28T11:17:50;3.08;;;1.98;;
75135;SDS011;63707;52.212;9.540;2023-07-28T11:20:17;3.67;;;2.08;;
75135;SDS011;63707;52.212;9.540;2023-07-28T11:22:43;2.30;;;1.88;;
75135;SDS011;63707;52.212;9.540;2023-07-28T11:25:11;2.20;;;2.00;;
75135;SDS011;63707;52.212;9.540;2023-07-28T11:27:37;2.70;;;2.40;;
75135;SDS011;63707;52.212;9.540;2023-07-28T11:30:03;3.00;;;2.05;;
75135;SDS011;63707;52.212;9.540;2023-07-28T11:32:30;3.35;;;2.17;;
75135;SDS011;63707;52.212;9.540;2023-07-28T11:34:55;3.15;;;2.15;;
75135;SDS011;63707;52.212;9.540;2023-07-28T11:37:28;2.45;;;1.85;;
75135;SDS011;63707;52.212;9.540;2023-07-28T11:39:55;2.20;;;2.00;;
75135;SDS011;63707;52.212;9.540;2023-07-28T11:42:23;2.40;;;2.08;;
75135;SDS011;63707;52.212;9.540;2023-07-28T11:44:48;3.72;;;1.90;;
75135;SDS011;63707;52.212;9.540;2023-07-28T11:47:16;2.67;;;2.03;;
75135;SDS011;63707;52.212;9.540;2023-07-28T11:49:45;2.33;;;2.00;;
75135;SDS011;63707;52.212;9.540;2023-07-28T11:52:11;2.83;;;2.10;;
75135;SDS011;63707;52.212;9.540;2023-07-28T11:54:37;2.63;;;2.10;;
75135;SDS011;63707;52.212;9.540;2023-07-28T11:57:03;2.22;;;2.03;;
75135;SDS011;63707;52.212;9.540;2023-07-28T11:59:32;3.33;;;2.00;;
75135;SDS011;63707;52.212;9.540;2023-07-28T12:01:58;2.42;;;1.85;;
75135;SDS011;63707;52.212;9.540;2023-07-28T12:04:25;2.10;;;1.88;;
75135;SDS011;63707;52.212;9.540;2023-07-28T12:07:02;3.50;;;2.13;;
75135;SDS011;63707;52.212;9.540;2023-07-28T12:09:32;2.78;;;2.00;;
75135;SDS011;63707;52.212;9.540;2023-07-28T12:11:58;3.80;;;1.92;;
75135;SDS011;63707;52.212;9.540;2023-07-28T12:14:32;4.13;;;1.95;;
75135;SDS011;63707;52.212;9.540;2023-07-28T12:16:58;4.90;;;2.17;;
75135;SDS011;63707;52.212;9.540;2023-07-28T12:19:24;2.22;;;2.00;;
75135;SDS011;63707;52.212;9.540;2023-07-28T12:21:50;2.97;;;2.25;;
75135;SDS011;63707;52.212;9.540;2023-07-28T12:24:15;4.00;;;1.70;;
75135;SDS011;63707;52.212;9.540;2023-07-28T12:26:41;1.98;;;1.73;;
75135;SDS011;63707;52.212;9.540;2023-07-28T12:29:06;3.15;;;1.73;;
75135;SDS011;63707;52.212;9.540;2023-07-28T12:31:33;2.25;;;2.05;;
75135;SDS011;63707;52.212;9.540;2023-07-28T12:33:59;2.72;;;2.10;;
75135;SDS011;63707;52.212;9.540;2023-07-28T12:36:24;3.15;;;2.45;;
75135;SDS011;63707;52.212;9.540;2023-07-28T12:38:50;3.65;;;2.22;;
75135;SDS011;63707;52.212;9.540;2023-07-28T12:41:15;4.50;;;2.63;;
75135;SDS011;63707;52.212;9.540;2023-07-28T12:43:41;3.65;;;2.15;;
75135;SDS011;63707;52.212;9.540;2023-07-28T12:46:06;3.58;;;2.17;;
75135;SDS011;63707;52.212;9.540;2023-07-28T12:48:33;3.40;;;2.35;;
75135;SDS011;63707;52.212;9.540;2023-07-28T12:50:58;4.15;;;2.03;;
75135;SDS011;63707;52.212;9.540;2023-07-28T12:53:24;3.35;;;2.58;;
75135;SDS011;63707;52.212;9.540;2023-07-28T12:55:49;4.78;;;2.25;;
75135;SDS011;63707;52.212;9.540;2023-07-28T12:58:15;4.75;;;2.45;;
75135;SDS011;63707;52.212;9.540;2023-07-28T13:00:40;2.90;;;2.58;;
75135;SDS011;63707;52.212;9.540;2023-07-28T13:03:06;3.65;;;2.58;;
75135;SDS011;63707;52.212;9.540;2023-07-28T13:05:33;5.75;;;2.60;;
75135;SDS011;63707;52.212;9.540;2023-07-28T13:07:58;4.05;;;2.70;;
75135;SDS011;63707;52.212;9.540;2023-07-28T13:10:24;4.13;;;2.70;;
75135;SDS011;63707;52.212;9.540;2023-07-28T13:12:49;4.30;;;2.47;;
75135;SDS011;63707;52.212;9.540;2023-07-28T13:15:15;4.28;;;2.58;;
75135;SDS011;63707;52.212;9.540;2023-07-28T13:17:40;3.03;;;2.67;;
75135;SDS011;63707;52.212;9.540;2023-07-28T13:20:07;2.92;;;2.63;;
75135;SDS011;63707;52.212;9.540;2023-07-28T13:22:34;2.85;;;2.40;;
75135;SDS011;63707;52.212;9.540;2023-07-28T13:24:59;3.55;;;2.58;;
75135;SDS011;63707;52.212;9.540;2023-07-28T13:27:25;2.88;;;2.38;;
75135;SDS011;63707;52.212;9.540;2023-07-28T13:29:51;2.85;;;2.50;;
75135;SDS011;63707;52.212;9.540;2023-07-28T13:32:17;3.15;;;2.75;;
75135;SDS011;63707;52.212;9.540;2023-07-28T13:34:43;4.22;;;2.20;;
75135;SDS011;63707;52.212;9.540;2023-07-28T13:37:09;3.10;;;2.80;;
75135;SDS011;63707;52.212;9.540;2023-07-28T13:39:36;3.20;;;2.90;;
75135;SDS011;63707;52.212;9.540;2023-07-28T13:42:01;3.80;;;2.42;;
75135;SDS011;63707;52.212;9.540;2023-07-28T13:44:26;5.65;;;3.10;;
75135;SDS011;63707;52.212;9.540;2023-07-28T13:46:52;4.53;;;2.63;;
75135;SDS011;63707;52.212;9.540;2023-07-28T13:49:17;3.95;;;2.38;;
75135;SDS011;63707;52.212;9.540;2023-07-28T13:51:43;2.90;;;2.58;;
75135;SDS011;63707;52.212;9.540;2023-07-28T13:54:09;2.92;;;2.63;;
75135;SDS011;63707;52.212;9.540;2023-07-28T13:56:36;3.05;;;2.75;;
75135;SDS011;63707;52.212;9.540;2023-07-28T13:59:02;4.05;;;2.60;;
75135;SDS011;63707;52.212;9.540;2023-07-28T14:01:27;3.15;;;2.58;;
75135;SDS011;63707;52.212;9.540;2023-07-28T14:03:53;3.58;;;2.60;;
75135;SDS011;63707;52.212;9.540;2023-07-28T14:06:18;4.97;;;2.72;;
75135;SDS011;63707;52.212;9.540;2023-07-28T14:08:44;2.90;;;2.30;;
75135;SDS011;63707;52.212;9.540;2023-07-28T14:11:10;2.95;;;2.60;;
75135;SDS011;63707;52.212;9.540;2023-07-28T14:13:37;3.28;;;2.88;;
75135;SDS011;63707;52.212;9.540;2023-07-28T14:16:02;2.95;;;2.65;;
75135;SDS011;63707;52.212;9.540;2023-07-28T14:18:28;4.60;;;2.90;;
75135;SDS011;63707;52.212;9.540;2023-07-28T14:20:54;4.10;;;2.60;;
75135;SDS011;63707;52.212;9.540;2023-07-28T14:23:20;4.90;;;2.35;;
75135;SDS011;63707;52.212;9.540;2023-07-28T14:25:47;3.78;;;2.50;;
75135;SDS011;63707;52.212;9.540;2023-07-28T14:28:12;2.95;;;2.50;;
75135;SDS011;63707;52.212;9.540;2023-07-28T14:30:39;3.03;;;2.40;;
75135;SDS011;63707;52.212;9.540;2023-07-28T14:33:04;3.75;;;2.38;;
75135;SDS011;63707;52.212;9.540;2023-07-28T14:35:30;3.65;;;2.40;;
75135;SDS011;63707;52.212;9.540;2023-07-28T14:37:55;2.78;;;2.40;;
75135;SDS011;63707;52.212;9.540;2023-07-28T14:40:21;5.32;;;2.22;;
75135;SDS011;63707;52.212;9.540;2023-07-28T14:42:46;2.95;;;2.28;;
75135;SDS011;63707;52.212;9.540;2023-07-28T14:45:12;2.60;;;2.40;;